Air Quality Table

TIMESTAMP NO2 SO2 O3 PM10 PM2.5 CO TEMP HUM AIRPRES WS WD NO BENZENE
2022-07-03 16:00 9.33 µg/m3 -0.31 µg/m3 74.75 µg/m3 30.97 µg/m3 20.84 µg/m3 0.25 mg/m3 27.72 °C 84.2 % 1,014.66 mbar 4.73 m/s 53.75 Deg 8.84 µg/m3 0.84 µg/m3
2022-07-03 15:00 10.96 µg/m3 -0.28 µg/m3 76.78 µg/m3 30.39 µg/m3 20.84 µg/m3 0.28 mg/m3 27.73 °C 83.73 % 1,014.98 mbar 4.63 m/s 62.08 Deg 9.61 µg/m3 0.84 µg/m3
2022-07-03 14:00 10.27 µg/m3 -0.3 µg/m3 78.43 µg/m3 31.98 µg/m3 20.83 µg/m3 0.24 mg/m3 27.8 °C 81.76 % 1,014.92 mbar 5.17 m/s 58.97 Deg 7.57 µg/m3 0.89 µg/m3
2022-07-03 13:00 10.49 µg/m3 -0.29 µg/m3 77.83 µg/m3 34.37 µg/m3 20.43 µg/m3 0.25 mg/m3 28.31 °C 77.38 % 1,015.14 mbar 4.27 m/s 46 Deg 8.07 µg/m3 1 µg/m3
2022-07-03 12:00 14.76 µg/m3 -0.27 µg/m3 76.92 µg/m3 38.41 µg/m3 21.25 µg/m3 0.28 mg/m3 28.63 °C 72.54 % 1,015.33 mbar 3.84 m/s 38.05 Deg 8.92 µg/m3 1.15 µg/m3
2022-07-03 11:00 17.28 µg/m3 -0.27 µg/m3 78.46 µg/m3 38.96 µg/m3 20.76 µg/m3 0.27 mg/m3 28.71 °C 69.38 % 1,015.13 mbar 3.94 m/s 40.93 Deg 9.73 µg/m3 1.36 µg/m3
2022-07-03 10:00 25.11 µg/m3 -0.34 µg/m3 74.67 µg/m3 42.08 µg/m3 20.62 µg/m3 0.31 mg/m3 28.86 °C 65.58 % 1,014.64 mbar 3.75 m/s 40.3 Deg 12.45 µg/m3 1.21 µg/m3
2022-07-03 09:00 19.52 µg/m3 -0.38 µg/m3 67.8 µg/m3 46.39 µg/m3 21 µg/m3 0.24 mg/m3 29.01 °C 63.06 % 1,014.43 mbar 3.63 m/s 39.8 Deg 11.62 µg/m3 1.15 µg/m3
2022-07-03 08:00 15.5 µg/m3 -0.34 µg/m3 55.05 µg/m3 52.89 µg/m3 23.14 µg/m3 0.24 mg/m3 28.97 °C 65.98 % 1,014.11 mbar 2.51 m/s 32.15 Deg 9.71 µg/m3 1.52 µg/m3
2022-07-03 07:00 16.15 µg/m3 -0.38 µg/m3 47.7 µg/m3 54.74 µg/m3 24.94 µg/m3 0.26 mg/m3 28.4 °C 71.09 % 1,013.66 mbar 1.42 m/s 93.92 Deg 7.09 µg/m3 1.1 µg/m3
2022-07-03 06:00 14.43 µg/m3 -0.43 µg/m3 47.28 µg/m3 37.19 µg/m3 24.82 µg/m3 0.21 mg/m3 27.42 °C 78.78 % 1,013.32 mbar 1.26 m/s 318.77 Deg 3.88 µg/m3 0.73 µg/m3
2022-07-03 05:00 16.21 µg/m3 -0.46 µg/m3 47.24 µg/m3 40.09 µg/m3 24.23 µg/m3 0.2 mg/m3 27.4 °C 74.82 % 1,013.12 mbar 0.92 m/s 246.22 Deg 3.24 µg/m3 0.84 µg/m3
2022-07-03 04:00 11.18 µg/m3 -0.31 µg/m3 55.1 µg/m3 50.25 µg/m3 23.26 µg/m3 0.17 mg/m3 27.61 °C 71.82 % 1,012.86 mbar 1.16 m/s 28.15 Deg 2.88 µg/m3 0.68 µg/m3
2022-07-03 03:00 11.06 µg/m3 -0.53 µg/m3 55.33 µg/m3 53.38 µg/m3 24.39 µg/m3 0.17 mg/m3 27.75 °C 71.12 % 1,013.10 mbar 0.87 m/s 97.93 Deg 1.7 µg/m3 0.89 µg/m3
2022-07-03 02:00 16.04 µg/m3 -0.4 µg/m3 54.47 µg/m3 55.37 µg/m3 24.92 µg/m3 0.21 mg/m3 28 °C 70.15 % 1,013.44 mbar 0.98 m/s 24.95 Deg 3.56 µg/m3 1.31 µg/m3
2022-07-03 01:00 23.85 µg/m3 -0.39 µg/m3 50.82 µg/m3 57.69 µg/m3 28.14 µg/m3 0.31 mg/m3 28.2 °C 68.52 % 1,013.60 mbar 1.24 m/s 53.57 Deg 10.05 µg/m3 2.94 µg/m3
2022-07-03 00:00 35.55 µg/m3 -0.27 µg/m3 34.89 µg/m3 44.23 µg/m3 29.49 µg/m3 0.41 mg/m3 27.86 °C 75.83 % 1,013.72 mbar 0.48 m/s 159.81 Deg 14.53 µg/m3 1 µg/m3
2022-07-02 23:00 25.31 µg/m3 -0.49 µg/m3 46.23 µg/m3 42.89 µg/m3 28.6 µg/m3 0.26 mg/m3 27.56 °C 77.98 % 1,013.96 mbar 1.39 m/s 258.43 Deg 2.73 µg/m3 1.36 µg/m3
2022-07-02 22:00 22.62 µg/m3 -0.44 µg/m3 52.63 µg/m3 60.16 µg/m3 26.72 µg/m3 0.29 mg/m3 28.23 °C 70.64 % 1,014.10 mbar 1.29 m/s 231.88 Deg 5.38 µg/m3 1.05 µg/m3
2022-07-02 21:00 16.56 µg/m3 -0.42 µg/m3 51 µg/m3 50.07 µg/m3 27.73 µg/m3 0.21 mg/m3 27.96 °C 74.42 % 1,013.69 mbar 1.33 m/s 242.1 Deg 2.34 µg/m3 0.89 µg/m3
2022-07-02 20:00 18.62 µg/m3 -0.36 µg/m3 55.56 µg/m3 50.49 µg/m3 25.45 µg/m3 0.23 mg/m3 28.25 °C 72.73 % 1,013.35 mbar 1.94 m/s 266.37 Deg 4.05 µg/m3 0.84 µg/m3
2022-07-02 19:00 19.22 µg/m3 -0.36 µg/m3 53.59 µg/m3 65.05 µg/m3 24.76 µg/m3 0.22 mg/m3 30.19 °C 61.65 % 1,013.04 mbar 2.85 m/s 236.3 Deg 3.86 µg/m3 0.73 µg/m3
2022-07-02 18:00 17.03 µg/m3 -0.33 µg/m3 46.32 µg/m3 76.59 µg/m3 24.29 µg/m3 0.21 mg/m3 31.28 °C 53.22 % 1,013.46 mbar 3.32 m/s 237.12 Deg 4.69 µg/m3 0.63 µg/m3

It is to be noted that the data is provisional and subject to quality assurance procedures. For validated data kindly refer your request to contact.air@era.org.mt